createdAt,value
2022-10-10T00:02:00.816Z,29.52
2022-10-10T00:04:31.606Z,29.52
2022-10-10T00:07:02.622Z,29.54
2022-10-10T00:09:34.505Z,29.56
2022-10-10T00:12:05.367Z,29.50
2022-10-10T00:14:36.278Z,29.53
2022-10-10T00:17:07.706Z,29.52
2022-10-10T00:19:38.587Z,29.53
2022-10-10T00:22:09.514Z,29.56
2022-10-10T00:24:40.424Z,29.54
2022-10-10T00:27:11.460Z,29.58
2022-10-10T00:29:42.350Z,29.55
2022-10-10T00:32:15.788Z,29.56
2022-10-10T00:34:46.797Z,29.56
2022-10-10T00:37:17.891Z,29.55
2022-10-10T00:39:48.763Z,29.55
2022-10-10T00:42:20.744Z,29.58
2022-10-10T00:45:26.528Z,29.54
2022-10-10T00:48:05.688Z,29.53
2022-10-10T00:50:40.853Z,29.52
2022-10-10T00:53:13.892Z,29.54
2022-10-10T00:55:46.394Z,29.52
2022-10-10T00:58:18.948Z,29.51
2022-10-10T01:00:50.130Z,29.50
2022-10-10T01:03:20.612Z,29.55
2022-10-10T01:05:53.412Z,29.51
2022-10-10T01:08:25.034Z,29.51
2022-10-10T01:11:20.745Z,29.51
2022-10-10T01:14:12.383Z,29.50
2022-10-10T01:16:55.072Z,29.53
2022-10-10T01:19:32.076Z,29.53
2022-10-10T01:22:30.117Z,29.51
2022-10-10T01:25:40.614Z,29.49
2022-10-10T01:28:30.279Z,29.54
2022-10-10T01:31:02.169Z,29.55
2022-10-10T01:33:45.477Z,29.54
2022-10-10T01:36:25.537Z,29.51
2022-10-10T01:39:20.023Z,29.52
2022-10-10T01:42:02.744Z,29.50
2022-10-10T01:44:33.717Z,29.49
2022-10-10T01:47:04.502Z,29.46
2022-10-10T01:49:38.658Z,29.45
2022-10-10T01:52:43.715Z,29.45
2022-10-10T01:55:25.023Z,29.47
2022-10-10T01:58:01.571Z,29.49
2022-10-10T02:00:39.202Z,29.46
2022-10-10T02:03:17.342Z,29.44
2022-10-10T02:05:57.442Z,29.50
2022-10-10T02:08:31.431Z,29.45
2022-10-10T02:11:08.599Z,29.48
2022-10-10T02:13:47.925Z,29.50
2022-10-10T02:16:32.174Z,29.49
2022-10-10T02:19:04.844Z,29.52
2022-10-10T02:21:36.495Z,29.50
2022-10-10T02:24:12.515Z,29.49
2022-10-10T02:26:48.201Z,29.49
2022-10-10T02:29:28.224Z,29.46
2022-10-10T02:32:20.188Z,29.49
2022-10-10T02:34:55.233Z,29.50
2022-10-10T02:37:28.050Z,29.51
2022-10-10T02:40:06.095Z,29.51
2022-10-10T02:42:38.481Z,29.51
2022-10-10T02:45:10.418Z,29.52
2022-10-10T02:47:41.401Z,29.52
2022-10-10T02:50:12.652Z,29.55
2022-10-10T02:52:43.774Z,29.54
2022-10-10T02:55:14.734Z,29.52
2022-10-10T02:57:45.353Z,29.54
2022-10-10T03:00:16.973Z,29.54
2022-10-10T03:02:49.193Z,29.55
2022-10-10T03:05:20.465Z,29.56
2022-10-10T03:07:52.438Z,29.57
2022-10-10T03:10:23.386Z,29.57
2022-10-10T03:12:54.202Z,29.56
2022-10-10T03:15:25.175Z,29.58
2022-10-10T03:17:55.916Z,29.59
2022-10-10T03:20:26.885Z,29.61
2022-10-10T03:22:57.653Z,29.61
2022-10-10T03:25:28.654Z,29.63
2022-10-10T03:27:59.505Z,29.62
2022-10-10T03:30:30.333Z,29.61
2022-10-10T03:33:01.075Z,29.62
2022-10-10T03:35:32.106Z,29.63
2022-10-10T03:38:03.452Z,29.63
2022-10-10T03:40:34.733Z,29.62
2022-10-10T03:43:05.644Z,29.64
2022-10-10T03:45:36.692Z,29.64
2022-10-10T03:48:08.208Z,29.63
2022-10-10T03:50:39.762Z,29.63
2022-10-10T03:53:11.258Z,29.64
2022-10-10T03:55:46.316Z,29.64
2022-10-10T03:58:20.135Z,29.65
2022-10-10T04:01:02.608Z,29.64
2022-10-10T04:03:34.026Z,29.65
2022-10-10T04:06:05.183Z,29.65
2022-10-10T04:08:35.705Z,29.65
2022-10-10T04:11:06.825Z,29.65
2022-10-10T04:13:37.761Z,29.68
2022-10-10T04:16:08.999Z,29.66
2022-10-10T04:18:39.839Z,29.65
2022-10-10T04:21:11.475Z,29.66
2022-10-10T04:23:44.089Z,29.66
2022-10-10T04:26:14.992Z,29.66
2022-10-10T04:28:45.885Z,29.63
2022-10-10T04:31:20.902Z,29.63
2022-10-10T04:33:51.908Z,29.62
2022-10-10T04:36:22.794Z,29.65
2022-10-10T04:38:53.737Z,29.62
2022-10-10T04:41:24.672Z,29.63
2022-10-10T04:43:55.424Z,29.65
2022-10-10T04:46:26.275Z,29.67
2022-10-10T04:48:57.784Z,29.65
2022-10-10T04:51:28.788Z,29.66
2022-10-10T04:53:59.677Z,29.68
2022-10-10T04:56:30.923Z,29.70
2022-10-10T04:59:03.549Z,29.71
2022-10-10T05:01:34.666Z,29.68
2022-10-10T05:04:05.488Z,29.68
2022-10-10T05:06:36.307Z,29.68
2022-10-10T05:09:07.205Z,29.68
2022-10-10T05:11:38.260Z,29.69
2022-10-10T05:14:09.141Z,29.69
2022-10-10T05:16:40.452Z,29.68
2022-10-10T05:19:11.854Z,29.69
2022-10-10T05:21:42.821Z,29.69
2022-10-10T05:24:13.763Z,29.71
2022-10-10T05:26:44.644Z,29.71
2022-10-10T05:29:15.368Z,29.71
2022-10-10T05:31:46.274Z,29.70
2022-10-10T05:34:18.115Z,29.72
2022-10-10T05:36:49.095Z,29.72
2022-10-10T05:39:19.980Z,29.70
2022-10-10T05:41:50.782Z,29.70
2022-10-10T05:44:21.585Z,29.73
2022-10-10T05:46:52.442Z,29.75
2022-10-10T05:49:23.204Z,29.78
2022-10-10T05:51:54.075Z,29.78
2022-10-10T05:54:25.190Z,29.78
2022-10-10T05:56:56.043Z,29.78
2022-10-10T05:59:27.230Z,29.81
2022-10-10T06:01:58.430Z,29.84
2022-10-10T06:04:29.318Z,29.84
2022-10-10T06:07:00.302Z,29.83
2022-10-10T06:09:31.075Z,29.84
2022-10-10T06:12:01.948Z,29.85
2022-10-10T06:14:32.673Z,29.87
2022-10-10T06:17:03.619Z,29.88
2022-10-10T06:19:34.468Z,29.89
2022-10-10T06:22:05.579Z,29.91
2022-10-10T06:24:36.540Z,29.90
2022-10-10T06:27:07.541Z,29.92
2022-10-10T06:29:38.317Z,29.92
2022-10-10T06:32:09.247Z,29.92
2022-10-10T06:34:39.884Z,29.96
2022-10-10T06:37:11.357Z,29.93
2022-10-10T06:40:00.096Z,29.91
2022-10-10T06:42:31.481Z,29.93
2022-10-10T06:45:01.830Z,29.92
2022-10-10T06:47:33.680Z,29.94
2022-10-10T06:50:05.070Z,29.95
2022-10-10T06:52:35.418Z,29.97
2022-10-10T06:55:06.230Z,29.95
2022-10-10T06:57:37.162Z,29.95
2022-10-10T07:00:09.312Z,29.99
2022-10-10T07:02:43.425Z,30.00
2022-10-10T07:05:19.605Z,29.98
2022-10-10T07:07:51.429Z,29.98
2022-10-10T07:10:22.327Z,30.03
2022-10-10T07:12:54.017Z,30.02
2022-10-10T07:15:24.953Z,30.02
2022-10-10T07:18:03.660Z,30.02
2022-10-10T07:20:34.561Z,30.01
2022-10-10T07:23:07.399Z,29.99
2022-10-10T07:25:43.379Z,29.99
2022-10-10T07:28:14.723Z,29.97
2022-10-10T07:30:49.203Z,29.99
2022-10-10T07:33:20.725Z,29.97
2022-10-10T07:35:57.630Z,29.97
2022-10-10T07:38:31.899Z,29.99
2022-10-10T07:41:02.669Z,30.02
2022-10-10T07:43:33.348Z,30.01
2022-10-10T07:46:05.866Z,30.01
2022-10-10T07:48:39.110Z,30.05
2022-10-10T07:51:10.714Z,30.04
2022-10-10T07:53:41.861Z,30.05
2022-10-10T07:56:13.694Z,30.02
2022-10-10T07:58:45.244Z,30.04
2022-10-10T08:01:17.219Z,30.03
2022-10-10T08:03:50.288Z,30.04
2022-10-10T08:06:21.636Z,30.03
2022-10-10T08:08:53.205Z,30.05
2022-10-10T08:11:24.518Z,30.03
2022-10-10T08:13:55.291Z,30.03
2022-10-10T08:16:26.179Z,30.02
2022-10-10T08:18:57.252Z,30.02
2022-10-10T08:21:28.153Z,30.04
2022-10-10T08:23:59.219Z,30.01
2022-10-10T08:26:29.994Z,30.03
2022-10-10T08:29:00.952Z,30.05
2022-10-10T08:31:32.883Z,30.05
2022-10-10T08:34:03.710Z,30.06
2022-10-10T08:36:34.593Z,30.06
2022-10-10T08:39:06.320Z,30.07
2022-10-10T08:41:45.304Z,30.08
2022-10-10T08:44:24.495Z,30.07
2022-10-10T08:47:15.747Z,30.04
2022-10-10T08:50:06.492Z,30.07
2022-10-10T08:52:41.579Z,30.05
2022-10-10T08:55:36.373Z,30.04
2022-10-10T08:58:12.976Z,30.05
2022-10-10T09:00:51.112Z,30.07
2022-10-10T09:03:32.439Z,30.06
2022-10-10T09:06:02.244Z,30.06
2022-10-10T09:08:50.379Z,30.07
2022-10-10T09:11:59.100Z,30.05
2022-10-10T09:14:50.122Z,30.07
2022-10-10T09:17:24.473Z,30.08
2022-10-10T09:20:29.379Z,30.06
2022-10-10T09:23:08.501Z,30.08
2022-10-10T09:26:05.327Z,30.08
2022-10-10T09:28:42.336Z,30.07
2022-10-10T09:31:44.370Z,30.06
2022-10-10T09:34:41.084Z,30.07
2022-10-10T09:37:45.666Z,30.08
2022-10-10T09:40:22.015Z,30.07
2022-10-10T09:42:52.506Z,30.06
2022-10-10T09:45:39.211Z,30.07
2022-10-10T09:48:12.034Z,30.06
2022-10-10T09:50:43.847Z,30.05
2022-10-10T09:53:18.432Z,30.04
2022-10-10T09:55:49.810Z,30.07
2022-10-10T09:58:26.605Z,30.08
2022-10-10T10:00:57.123Z,30.11
2022-10-10T10:03:27.396Z,30.11
2022-10-10T10:06:03.863Z,30.09
2022-10-10T10:08:38.923Z,30.10
2022-10-10T10:11:22.963Z,30.10
2022-10-10T10:13:58.695Z,30.11
2022-10-10T10:16:38.517Z,30.12
2022-10-10T10:19:28.741Z,30.11
2022-10-10T10:21:58.747Z,30.10
2022-10-10T10:24:38.252Z,30.11
2022-10-10T10:27:21.060Z,30.10
2022-10-10T10:29:53.771Z,30.08
2022-10-10T10:32:35.968Z,30.08
2022-10-10T10:35:11.887Z,30.08
2022-10-10T10:37:57.434Z,30.08
2022-10-10T10:40:39.834Z,30.11
2022-10-10T10:43:19.867Z,30.11
2022-10-10T10:46:20.321Z,30.10
2022-10-10T10:49:18.752Z,30.11
2022-10-10T10:52:42.635Z,30.12
2022-10-10T10:55:41.717Z,30.11
2022-10-10T11:01:23.351Z,30.11
2022-10-10T11:05:16.364Z,30.08
2022-10-10T11:07:21.063Z,30.07
2022-10-10T11:10:00.081Z,30.06
2022-10-10T11:12:47.899Z,30.07
2022-10-10T11:15:23.437Z,30.04
2022-10-10T11:18:18.447Z,30.01
2022-10-10T11:21:10.661Z,30.00
2022-10-10T11:23:44.443Z,29.99
2022-10-10T11:26:33.318Z,30.00
2022-10-10T11:29:25.571Z,30.00
2022-10-10T11:32:16.160Z,30.00
2022-10-10T11:34:57.403Z,29.97
2022-10-10T11:37:31.486Z,29.98
2022-10-10T11:40:07.747Z,29.98
2022-10-10T11:42:54.888Z,29.95
2022-10-10T11:45:32.449Z,29.96
2022-10-10T11:48:02.697Z,29.97
2022-10-10T11:50:41.196Z,29.93
2022-10-10T11:53:25.069Z,29.93
2022-10-10T11:56:12.132Z,29.94
2022-10-10T11:59:01.267Z,29.93
2022-10-10T12:01:38.632Z,29.94
2022-10-10T12:04:08.896Z,29.92
2022-10-10T12:06:47.644Z,29.93
2022-10-10T12:09:40.041Z,29.92
2022-10-10T12:12:16.055Z,29.94
2022-10-10T12:14:56.043Z,29.94
2022-10-10T12:17:38.529Z,29.96
2022-10-10T12:20:17.649Z,29.96
2022-10-10T12:22:47.959Z,29.93
2022-10-10T12:25:24.020Z,29.91
2022-10-10T12:28:32.802Z,29.92
2022-10-10T12:31:05.982Z,29.91
2022-10-10T12:33:36.221Z,29.90
2022-10-10T12:36:44.151Z,29.91
2022-10-10T12:39:14.128Z,29.91
2022-10-10T12:41:49.837Z,29.87
2022-10-10T12:44:25.053Z,29.82
2022-10-10T12:47:16.841Z,29.81
2022-10-10T12:50:04.084Z,29.74
2022-10-10T12:52:39.583Z,29.62
2022-10-10T12:55:21.594Z,29.67
2022-10-10T12:57:55.339Z,29.67
2022-10-10T13:00:29.882Z,29.65
2022-10-10T13:03:06.864Z,29.59
2022-10-10T13:05:41.145Z,29.56
2022-10-10T13:08:20.718Z,29.47
2022-10-10T13:11:23.593Z,29.53
2022-10-10T13:13:56.326Z,29.43
2022-10-10T13:16:33.951Z,29.45
2022-10-10T13:19:04.489Z,29.28
2022-10-10T13:21:37.407Z,29.21
2022-10-10T13:24:09.434Z,29.26
2022-10-10T13:26:45.950Z,29.25
2022-10-10T13:29:28.428Z,29.25
2022-10-10T13:32:15.761Z,29.32
2022-10-10T13:34:51.514Z,29.29
2022-10-10T13:37:22.909Z,29.34
2022-10-10T13:39:54.889Z,29.28
2022-10-10T13:42:40.077Z,29.35
2022-10-10T13:45:30.670Z,29.33
2022-10-10T13:49:56.496Z,29.32
2022-10-10T13:52:26.564Z,29.34
2022-10-10T13:54:56.487Z,29.31
2022-10-10T13:57:29.867Z,29.28
2022-10-10T14:00:25.075Z,29.32
2022-10-10T14:02:55.432Z,29.38
2022-10-10T14:05:32.826Z,29.29
2022-10-10T14:08:02.932Z,29.32
2022-10-10T14:10:39.318Z,29.23
2022-10-10T14:13:19.755Z,29.25
2022-10-10T14:15:50.213Z,29.27
2022-10-10T14:18:20.191Z,29.24
2022-10-10T14:20:51.022Z,29.09
2022-10-10T14:23:21.496Z,29.17
2022-10-10T14:25:52.311Z,29.18
2022-10-10T14:28:28.643Z,29.22
2022-10-10T14:30:59.591Z,29.26
2022-10-10T14:33:30.135Z,29.32
2022-10-10T14:36:02.016Z,29.38
2022-10-10T14:38:32.199Z,29.41
2022-10-10T14:41:03.343Z,29.45
2022-10-10T14:43:33.603Z,29.46
2022-10-10T14:46:04.360Z,29.49
2022-10-10T14:48:34.495Z,29.50
2022-10-10T14:51:34.129Z,29.49
2022-10-10T14:54:12.690Z,29.64
2022-10-10T14:57:08.200Z,29.80
2022-10-10T14:59:48.098Z,29.86
2022-10-10T15:02:21.946Z,29.87
2022-10-10T15:04:52.681Z,29.91
2022-10-10T15:07:22.906Z,29.98
2022-10-10T15:12:46.710Z,29.90
2022-10-10T15:15:17.141Z,29.92
2022-10-10T15:17:47.135Z,29.86
2022-10-10T15:20:17.185Z,29.90
2022-10-10T15:22:48.209Z,29.90
2022-10-10T15:25:18.211Z,29.93
2022-10-10T15:27:48.115Z,29.91
2022-10-10T15:30:18.277Z,29.92
2022-10-10T15:32:48.472Z,29.94
2022-10-10T15:35:24.082Z,29.94
2022-10-10T15:37:54.110Z,29.96
2022-10-10T15:40:26.216Z,29.93
2022-10-10T15:42:56.252Z,29.93
2022-10-10T15:48:16.440Z,29.87
2022-10-10T15:50:46.673Z,29.92
2022-10-10T15:53:17.080Z,29.92
2022-10-10T15:55:48.372Z,29.82
2022-10-10T15:58:18.366Z,29.77
2022-10-10T16:00:48.409Z,29.71
2022-10-10T16:03:18.606Z,29.73
2022-10-10T16:05:48.572Z,29.75
2022-10-10T16:08:18.623Z,29.74
2022-10-10T16:10:48.632Z,29.74
2022-10-10T16:13:18.731Z,29.70
2022-10-10T16:15:59.614Z,29.74
2022-10-10T16:18:30.494Z,29.75
2022-10-10T16:21:01.009Z,29.73
2022-10-10T16:23:31.401Z,29.73
2022-10-10T16:26:10.083Z,29.72
2022-10-10T16:28:40.394Z,29.75
2022-10-10T16:31:13.506Z,29.71
2022-10-10T16:33:44.470Z,29.70
2022-10-10T16:36:20.706Z,29.69
2022-10-10T16:38:51.611Z,29.69
2022-10-10T16:41:42.973Z,29.71
2022-10-10T16:44:12.376Z,29.70
2022-10-10T16:46:42.301Z,29.71
2022-10-10T16:49:14.072Z,29.71
2022-10-10T16:51:44.150Z,29.72
2022-10-10T16:54:14.058Z,29.70
2022-10-10T16:56:46.935Z,29.69
2022-10-10T16:59:17.484Z,29.71
2022-10-10T17:01:47.526Z,29.68
2022-10-10T17:04:17.378Z,29.69
2022-10-10T17:06:47.258Z,29.63
2022-10-10T17:09:19.252Z,29.68
2022-10-10T17:11:51.404Z,29.65
2022-10-10T17:14:22.436Z,29.65
2022-10-10T17:17:12.075Z,29.67
2022-10-10T17:19:42.548Z,29.63
2022-10-10T17:22:12.478Z,29.63
2022-10-10T17:24:42.567Z,29.66
2022-10-10T17:27:12.551Z,29.63
2022-10-10T17:29:42.447Z,29.64
2022-10-10T17:32:12.519Z,29.62
2022-10-10T17:34:42.567Z,29.63
2022-10-10T17:37:12.479Z,29.63
2022-10-10T17:39:42.594Z,29.67
2022-10-10T17:42:12.552Z,29.62
2022-10-10T17:44:48.322Z,29.62
2022-10-10T17:47:21.352Z,29.62
2022-10-10T17:49:51.245Z,29.59
2022-10-10T17:52:21.559Z,29.62
2022-10-10T17:54:51.673Z,29.58
2022-10-10T17:57:21.943Z,29.61
2022-10-10T17:59:52.056Z,29.60
2022-10-10T18:02:22.367Z,29.60
2022-10-10T18:04:53.029Z,29.63
2022-10-10T18:07:23.200Z,29.59
2022-10-10T18:09:54.305Z,29.61
2022-10-10T18:12:24.104Z,29.62
2022-10-10T18:14:53.940Z,29.61
2022-10-10T18:17:23.967Z,29.60
2022-10-10T18:19:53.881Z,29.60
2022-10-10T18:22:23.986Z,29.60
2022-10-10T18:24:53.853Z,29.55
2022-10-10T18:27:24.242Z,29.59
2022-10-10T18:29:54.286Z,29.59
2022-10-10T18:32:24.139Z,29.62
2022-10-10T18:34:54.012Z,29.60
2022-10-10T18:37:23.911Z,29.59
2022-10-10T18:39:53.787Z,29.59
2022-10-10T18:42:23.898Z,29.60
2022-10-10T18:44:53.931Z,29.59
2022-10-10T18:47:23.901Z,29.61
2022-10-10T18:49:54.974Z,29.59
2022-10-10T18:52:25.816Z,29.56
2022-10-10T18:54:55.722Z,29.50
2022-10-10T18:57:25.861Z,29.51
2022-10-10T18:59:57.116Z,29.52
2022-10-10T19:02:26.746Z,29.53
2022-10-10T19:04:56.575Z,29.53
2022-10-10T19:07:26.607Z,29.53
2022-10-10T19:09:57.025Z,29.52
2022-10-10T19:12:27.803Z,29.51
2022-10-10T19:14:57.860Z,29.49
2022-10-10T19:17:27.774Z,29.45
2022-10-10T19:19:57.801Z,29.46
2022-10-10T19:22:28.132Z,29.44
2022-10-10T19:24:58.735Z,29.46
2022-10-10T19:27:28.580Z,29.48
2022-10-10T19:29:58.843Z,29.44
2022-10-10T19:32:29.823Z,29.45
2022-10-10T19:34:59.826Z,29.45
2022-10-10T19:37:29.660Z,29.43
2022-10-10T19:39:59.880Z,29.43
2022-10-10T19:42:29.987Z,29.42
2022-10-10T19:45:00.037Z,29.42
2022-10-10T19:47:29.872Z,29.36
2022-10-10T19:50:00.906Z,29.40
2022-10-10T19:52:31.165Z,29.37
2022-10-10T19:55:01.191Z,29.38
2022-10-10T19:57:31.040Z,29.41
2022-10-10T20:00:01.690Z,29.40
2022-10-10T20:02:41.024Z,29.41
2022-10-10T20:05:11.476Z,29.37
2022-10-10T20:07:41.624Z,29.39
2022-10-10T20:10:12.027Z,29.38
2022-10-10T20:12:42.718Z,29.37
2022-10-10T20:15:13.370Z,29.32
2022-10-10T20:17:43.586Z,29.31
2022-10-10T20:20:14.190Z,29.33
2022-10-10T20:22:46.692Z,29.29
2022-10-10T20:25:16.702Z,29.33
2022-10-10T20:27:46.565Z,29.33
2022-10-10T20:30:16.552Z,29.30
2022-10-10T20:32:46.606Z,29.33
2022-10-10T20:35:16.707Z,29.31
2022-10-10T20:37:48.021Z,29.34
2022-10-10T20:40:17.675Z,29.31
2022-10-10T20:42:47.503Z,29.33
2022-10-10T20:45:18.723Z,29.32
2022-10-10T20:47:48.755Z,29.31
2022-10-10T20:50:18.761Z,29.34
2022-10-10T20:52:49.665Z,29.28
2022-10-10T20:55:20.127Z,29.32
2022-10-10T20:57:50.771Z,29.26
2022-10-10T21:00:20.912Z,29.27
2022-10-10T21:02:51.578Z,29.27
2022-10-10T21:05:21.540Z,29.27
2022-10-10T21:07:51.406Z,29.31
2022-10-10T21:10:21.445Z,29.27
2022-10-10T21:12:52.488Z,29.27
2022-10-10T21:15:23.017Z,29.28
2022-10-10T21:17:53.017Z,29.31
2022-10-10T21:20:22.839Z,29.28
2022-10-10T21:22:52.716Z,29.30
2022-10-10T21:25:22.599Z,29.30
2022-10-10T21:27:52.445Z,29.28
2022-10-10T21:30:24.088Z,29.29
2022-10-10T21:32:54.115Z,29.30
2022-10-10T21:35:24.058Z,29.33
2022-10-10T21:37:54.268Z,29.32
2022-10-10T21:40:24.168Z,29.25
2022-10-10T21:42:54.020Z,29.26
2022-10-10T21:45:24.517Z,29.28
2022-10-10T21:47:54.358Z,29.27
2022-10-10T21:50:24.390Z,29.30
2022-10-10T21:52:54.238Z,29.27
2022-10-10T21:55:24.656Z,29.28
2022-10-10T21:57:55.293Z,29.26
2022-10-10T22:00:25.468Z,29.27
2022-10-10T22:02:55.663Z,29.28
2022-10-10T22:05:25.755Z,29.26
2022-10-10T22:07:55.520Z,29.22
2022-10-10T22:10:25.476Z,29.24
2022-10-10T22:12:55.679Z,29.22
2022-10-10T22:15:26.292Z,29.22
2022-10-10T22:17:56.775Z,29.22
2022-10-10T22:20:27.241Z,29.22
2022-10-10T22:22:57.295Z,29.24
2022-10-10T22:25:27.163Z,29.24
2022-10-10T22:27:57.440Z,29.23
2022-10-10T22:30:29.066Z,29.28
2022-10-10T22:32:59.062Z,29.28
2022-10-10T22:35:28.898Z,29.32
2022-10-10T22:38:00.242Z,29.29
2022-10-10T22:40:31.089Z,29.28
2022-10-10T22:43:01.403Z,29.30
2022-10-10T22:45:32.825Z,29.30
2022-10-10T22:48:03.131Z,29.26
2022-10-10T22:50:34.299Z,29.22
2022-10-10T22:53:04.530Z,29.26
2022-10-10T22:57:21.228Z,29.25
2022-10-10T22:59:51.270Z,29.18
2022-10-10T23:02:22.016Z,29.17
2022-10-10T23:04:52.145Z,29.07
2022-10-10T23:07:24.904Z,29.02
2022-10-10T23:09:55.051Z,28.98
2022-10-10T23:12:25.029Z,29.07
2022-10-10T23:14:54.993Z,29.11
2022-10-10T23:17:24.887Z,29.13
2022-10-10T23:19:55.267Z,29.12
2022-10-10T23:22:27.554Z,29.15
2022-10-10T23:24:57.615Z,29.15
2022-10-10T23:27:28.000Z,29.16
2022-10-10T23:29:58.030Z,29.16
2022-10-10T23:32:31.484Z,29.17
2022-10-10T23:35:01.508Z,29.19
2022-10-10T23:37:32.661Z,29.19
2022-10-10T23:40:02.370Z,29.19
2022-10-10T23:42:32.200Z,29.19
2022-10-10T23:45:02.222Z,29.15
2022-10-10T23:47:32.297Z,29.18
2022-10-10T23:50:02.470Z,29.20
2022-10-10T23:52:32.680Z,29.17
2022-10-10T23:55:03.662Z,29.19
2022-10-10T23:57:34.764Z,29.16
